Time;durP1;ratioP1;P1;durP2;ratioP2;P2;SDS_P1;SDS_P2;PMS_P1;PMS_P2;Temp;Humidity;BMP_temperature;BMP_pressure;BME280_temperature;BME280_humidity;BME280_pressure;Samples;Min_cycle;Max_cycle;Signal;HPM_P1;HPM_P2
2021/09/01 00:01:35;;;;;;;19.00;11.90;;;15.40;99.90;;;;;;5005473;28;20469;-56
2021/09/01 00:04:02;;;;;;;27.47;13.93;;;15.40;99.90;;;;;;5011070;28;20446;-59
2021/09/01 00:06:28;;;;;;;18.30;11.60;;;15.40;99.90;;;;;;5011568;28;20461;-59
2021/09/01 00:08:55;;;;;;;18.30;13.00;;;15.40;99.90;;;;;;5011490;28;20452;-58
2021/09/01 00:11:22;;;;;;;18.37;13.53;;;15.40;99.90;;;;;;5011303;28;20453;-59
2021/09/01 00:13:51;;;;;;;16.63;13.17;;;15.50;99.90;;;;;;5011439;28;20966;-59
2021/09/01 00:16:27;;;;;;;27.20;13.80;;;15.40;99.90;;;;;;5009927;28;20442;-61
2021/09/01 00:18:54;;;;;;;18.97;11.27;;;15.50;99.90;;;;;;5012195;28;20485;-58
2021/09/01 00:21:21;;;;;;;18.47;13.23;;;15.40;99.90;;;;;;5012006;28;20963;-60
2021/09/01 00:23:48;;;;;;;19.80;12.03;;;15.40;99.90;;;;;;5012200;28;20454;-59
2021/09/01 00:26:15;;;;;;;17.03;12.00;;;15.50;99.90;;;;;;5012159;28;20806;-59
2021/09/01 00:28:42;;;;;;;28.43;12.73;;;15.40;99.90;;;;;;5012002;28;20450;-57
2021/09/01 00:31:10;;;;;;;26.73;13.33;;;15.50;99.90;;;;;;5011943;28;20445;-60
2021/09/01 00:33:36;;;;;;;25.50;12.90;;;15.50;99.90;;;;;;5000134;28;21023;-58
2021/09/01 00:36:03;;;;;;;21.03;13.80;;;15.50;99.90;;;;;;4992350;28;20447;-59
2021/09/01 00:38:30;;;;;;;21.20;13.57;;;15.40;99.90;;;;;;4992368;28;20447;-58
2021/09/01 00:40:57;;;;;;;22.60;13.67;;;15.40;99.90;;;;;;4992048;28;20455;-59
2021/09/01 00:43:24;;;;;;;21.30;14.20;;;15.40;99.90;;;;;;4992104;28;20972;-60
2021/09/01 00:45:52;;;;;;;17.43;12.73;;;15.40;99.90;;;;;;4992162;28;20451;-60
2021/09/01 00:48:21;;;;;;;20.90;13.10;;;15.40;99.90;;;;;;4992298;28;20447;-58
2021/09/01 00:50:48;;;;;;;23.23;12.63;;;15.40;99.90;;;;;;5007992;28;20958;-57
2021/09/01 00:53:15;;;;;;;36.53;16.97;;;15.40;99.90;;;;;;5011472;28;20573;-58
2021/09/01 00:55:44;;;;;;;22.63;14.90;;;15.40;99.90;;;;;;5011801;28;20452;-60
2021/09/01 00:58:11;;;;;;;21.30;13.93;;;15.40;99.90;;;;;;5003424;28;20451;-60
2021/09/01 01:00:45;;;;;;;21.97;13.27;;;15.40;99.90;;;;;;4995036;28;21014;-59
2021/09/01 01:03:12;;;;;;;19.43;14.40;;;15.40;99.90;;;;;;5011533;28;20473;-55
2021/09/01 01:05:40;;;;;;;26.00;14.23;;;15.40;99.90;;;;;;5013994;28;20442;-58
2021/09/01 01:08:07;;;;;;;19.47;12.73;;;15.50;99.90;;;;;;5014008;28;20438;-58
2021/09/01 01:10:34;;;;;;;25.43;14.80;;;15.40;99.90;;;;;;5015609;28;20962;-56
2021/09/01 01:13:01;;;;;;;24.10;13.27;;;15.50;99.90;;;;;;5015366;28;20893;-60
2021/09/01 01:15:28;;;;;;;25.67;13.57;;;15.50;99.90;;;;;;5005106;28;20470;-59
2021/09/01 01:17:55;;;;;;;18.60;13.40;;;15.50;99.90;;;;;;4995849;28;20447;-58
2021/09/01 01:20:21;;;;;;;20.87;13.63;;;15.50;99.90;;;;;;4995818;28;20482;-59
2021/09/01 01:22:49;;;;;;;15.80;13.07;;;15.50;99.90;;;;;;4995618;28;20823;-55
2021/09/01 01:25:32;;;;;;;17.77;14.50;;;15.50;99.90;;;;;;4995824;28;20485;-58
2021/09/01 01:27:59;;;;;;;15.83;12.40;;;15.60;99.90;;;;;;4995766;28;20454;-59
2021/09/01 01:30:26;;;;;;;26.23;13.93;;;15.60;99.90;;;;;;4995640;28;20859;-58
2021/09/01 01:32:54;;;;;;;17.03;12.40;;;15.60;99.90;;;;;;5013645;28;20489;-59
2021/09/01 01:35:25;;;;;;;15.13;11.30;;;15.60;99.90;;;;;;5015103;28;20939;-59
2021/09/01 01:37:52;;;;;;;17.83;12.30;;;15.60;99.90;;;;;;5015183;28;20453;-58
2021/09/01 01:40:19;;;;;;;16.90;11.07;;;15.70;99.90;;;;;;5013324;28;20489;-61
2021/09/01 01:42:48;;;;;;;20.80;11.60;;;15.70;99.90;;;;;;4999858;28;20468;-60
2021/09/01 01:45:15;;;;;;;21.63;11.40;;;15.70;99.90;;;;;;4995372;28;20541;-59
2021/09/01 01:47:42;;;;;;;17.30;12.60;;;15.70;99.90;;;;;;4995411;28;20947;-59
2021/09/01 01:50:09;;;;;;;14.70;11.27;;;15.70;99.90;;;;;;4995303;28;20820;-58
2021/09/01 01:52:36;;;;;;;12.33;10.37;;;15.70;99.90;;;;;;4994959;28;20829;-59
2021/09/01 01:55:04;;;;;;;17.00;10.23;;;15.70;99.90;;;;;;4995660;28;20451;-58
2021/09/01 01:57:31;;;;;;;19.23;10.07;;;15.80;99.90;;;;;;5014822;28;20446;-59
2021/09/01 01:59:59;;;;;;;16.10;8.40;;;15.70;99.90;;;;;;5014575;28;20481;-59
2021/09/01 02:02:30;;;;;;;10.43;9.43;;;15.70;99.90;;;;;;5014109;28;20470;-57
2021/09/01 02:04:57;;;;;;;11.40;9.53;;;15.70;99.90;;;;;;5014729;28;20951;-58
2021/09/01 02:07:24;;;;;;;12.30;9.40;;;15.70;99.90;;;;;;5014658;28;20446;-57
2021/09/01 02:09:50;;;;;;;19.40;10.70;;;15.70;99.90;;;;;;5014602;28;20441;-57
2021/09/01 02:12:17;;;;;;;12.60;9.30;;;15.70;99.90;;;;;;5012447;28;20477;-58
2021/09/01 02:14:44;;;;;;;14.07;9.17;;;15.70;99.90;;;;;;5014416;28;20442;-56
2021/09/01 02:17:12;;;;;;;11.50;9.33;;;15.80;99.90;;;;;;5013874;28;20453;-58
2021/09/01 02:19:39;;;;;;;14.63;9.97;;;15.80;99.90;;;;;;5014440;28;21076;-59
2021/09/01 02:22:06;;;;;;;14.50;8.83;;;15.80;99.90;;;;;;5014229;28;20470;-60
2021/09/01 02:24:33;;;;;;;13.60;11.40;;;15.80;99.90;;;;;;5014336;28;20532;-57
2021/09/01 02:26:59;;;;;;;12.00;8.47;;;15.80;99.90;;;;;;5014133;28;20452;-60
2021/09/01 02:29:26;;;;;;;16.97;9.70;;;15.80;99.90;;;;;;5001168;28;20447;-61
2021/09/01 02:31:53;;;;;;;9.80;9.00;;;15.80;99.90;;;;;;4994140;28;20478;-60
2021/09/01 02:34:21;;;;;;;9.97;9.03;;;15.80;99.90;;;;;;4994332;28;20445;-59
2021/09/01 02:36:47;;;;;;;10.17;9.10;;;15.80;99.90;;;;;;4994568;28;20466;-58
2021/09/01 02:39:14;;;;;;;12.47;8.63;;;15.80;99.90;;;;;;4994375;28;20455;-59
2021/09/01 02:41:41;;;;;;;11.67;8.27;;;15.80;99.90;;;;;;4994042;28;20467;-59
2021/09/01 02:44:08;;;;;;;9.60;8.27;;;15.80;99.90;;;;;;4994258;28;20828;-57
2021/09/01 02:46:34;;;;;;;10.13;9.13;;;15.80;99.90;;;;;;4995297;28;20454;-60
2021/09/01 02:49:01;;;;;;;11.73;9.37;;;15.80;99.90;;;;;;4994213;28;20447;-58
2021/09/01 02:51:29;;;;;;;13.27;8.43;;;15.80;99.90;;;;;;4994019;28;20802;-56
2021/09/01 02:53:56;;;;;;;10.80;9.70;;;15.80;99.90;;;;;;5003470;28;20447;-59
2021/09/01 02:56:22;;;;;;;12.30;9.50;;;15.80;99.90;;;;;;5013614;28;20453;-58
2021/09/01 02:58:49;;;;;;;10.67;9.33;;;15.80;99.90;;;;;;5003152;28;20477;-59
2021/09/01 03:01:16;;;;;;;14.97;10.57;;;15.80;99.90;;;;;;4993657;28;20490;-59
2021/09/01 03:03:42;;;;;;;15.40;11.00;;;15.80;99.90;;;;;;4993922;28;20454;-60
2021/09/01 03:06:09;;;;;;;13.03;10.23;;;15.90;99.90;;;;;;4994016;28;20465;-59
2021/09/01 03:08:37;;;;;;;11.33;10.33;;;15.90;99.90;;;;;;4993795;28;20447;-60
2021/09/01 03:11:04;;;;;;;11.53;10.27;;;15.80;99.90;;;;;;4993693;28;20470;-57
2021/09/01 03:13:30;;;;;;;11.67;10.47;;;15.80;99.90;;;;;;5009524;28;20473;-59
2021/09/01 03:15:57;;;;;;;15.17;12.20;;;15.80;99.90;;;;;;5013274;28;20532;-59
2021/09/01 03:18:24;;;;;;;14.40;11.37;;;15.80;99.90;;;;;;5013593;28;20811;-59
2021/09/01 03:20:51;;;;;;;13.80;12.57;;;15.80;99.90;;;;;;5013302;28;20490;-58
2021/09/01 03:23:18;;;;;;;17.40;15.70;;;15.70;99.90;;;;;;5012939;28;20466;-59
2021/09/01 03:25:46;;;;;;;17.63;15.40;;;15.70;99.90;;;;;;5013194;28;20920;-58
2021/09/01 03:28:13;;;;;;;19.83;17.07;;;15.70;99.90;;;;;;5010353;28;20447;-58
2021/09/01 03:30:40;;;;;;;24.07;19.23;;;15.60;99.90;;;;;;5013167;28;20457;-60
2021/09/01 03:33:07;;;;;;;21.50;17.93;;;15.60;99.90;;;;;;5012700;28;20477;-60
2021/09/01 03:35:33;;;;;;;22.77;18.60;;;15.60;99.90;;;;;;5013123;28;20469;-59
2021/09/01 03:38:00;;;;;;;21.73;18.87;;;15.60;99.90;;;;;;5012816;28;20450;-59
2021/09/01 03:40:27;;;;;;;24.37;21.77;;;15.60;99.90;;;;;;5012682;28;20490;-57
2021/09/01 03:42:55;;;;;;;24.60;20.80;;;15.60;99.90;;;;;;5012499;28;20466;-59
2021/09/01 03:45:22;;;;;;;22.07;19.37;;;15.60;99.90;;;;;;5003589;28;20447;-60
2021/09/01 03:47:48;;;;;;;25.67;21.67;;;15.60;99.90;;;;;;4993213;28;20463;-59
2021/09/01 03:50:23;;;;;;;26.33;23.50;;;15.60;99.90;;;;;;5089130;28;21030;-59
2021/09/01 03:52:49;;;;;;;26.43;21.73;;;15.60;99.90;;;;;;5086982;28;20455;-56
2021/09/01 03:55:17;;;;;;;23.20;20.40;;;15.60;99.90;;;;;;5068833;28;20435;-59
2021/09/01 03:57:43;;;;;;;25.30;22.70;;;15.60;99.90;;;;;;5068833;28;20454;-60
2021/09/01 04:00:11;;;;;;;28.03;21.70;;;15.60;99.90;;;;;;5068887;28;20439;-59
2021/09/01 04:02:38;;;;;;;24.53;22.03;;;15.50;99.90;;;;;;5112257;22;20482;-60
2021/09/01 04:05:06;;;;;;;26.17;23.00;;;15.50;99.90;;;;;;5055704;28;20433;-62
2021/09/01 04:07:34;;;;;;;28.20;24.33;;;15.50;99.90;;;;;;5064965;28;20811;-62
2021/09/01 04:10:00;;;;;;;25.67;23.00;;;15.50;99.90;;;;;;5068411;28;20475;-58
2021/09/01 04:12:27;;;;;;;29.20;25.73;;;15.50;99.90;;;;;;5068252;28;20443;-61
2021/09/01 04:14:54;;;;;;;28.67;24.80;;;15.50;99.90;;;;;;5068233;28;20478;-62
2021/09/01 04:17:21;;;;;;;26.07;23.37;;;15.50;99.90;;;;;;5060717;28;20953;-62
2021/09/01 04:19:47;;;;;;;30.90;25.97;;;15.50;99.90;;;;;;5048422;28;20484;-60
2021/09/01 04:22:14;;;;;;;34.47;30.80;;;15.50;99.90;;;;;;5048086;28;20453;-59
2021/09/01 04:24:42;;;;;;;34.60;30.20;;;15.50;99.90;;;;;;5048252;28;20465;-62
2021/09/01 04:27:09;;;;;;;35.53;31.20;;;15.50;99.90;;;;;;5048193;28;20949;-62
2021/09/01 04:29:35;;;;;;;33.77;30.10;;;15.50;99.90;;;;;;5048013;28;20444;-61
2021/09/01 04:32:02;;;;;;;31.10;27.83;;;15.50;99.90;;;;;;5047888;28;20444;-58
2021/09/01 04:34:29;;;;;;;37.87;31.30;;;15.50;99.90;;;;;;5060550;28;20474;-61
2021/09/01 04:36:56;;;;;;;44.80;31.43;;;15.50;99.90;;;;;;5067857;28;20937;-62
2021/09/01 04:39:22;;;;;;;34.63;30.77;;;15.60;99.90;;;;;;5067691;28;20479;-62
2021/09/01 04:41:51;;;;;;;35.87;31.07;;;15.50;99.90;;;;;;5067665;28;20467;-62
2021/09/01 04:44:18;;;;;;;37.27;31.27;;;15.50;99.90;;;;;;5067620;28;21002;-62
2021/09/01 04:46:44;;;;;;;39.50;31.13;;;15.60;99.90;;;;;;5067716;28;20943;-60
2021/09/01 04:49:11;;;;;;;35.77;32.00;;;15.60;99.90;;;;;;5066872;28;20485;-62
2021/09/01 04:51:38;;;;;;;35.00;31.03;;;15.60;99.90;;;;;;5047645;28;20436;-62
2021/09/01 04:54:04;;;;;;;41.40;34.10;;;15.60;99.90;;;;;;5047585;28;20472;-61
2021/09/01 04:56:31;;;;;;;37.73;33.23;;;15.60;99.90;;;;;;5047813;28;20456;-60
2021/09/01 04:58:59;;;;;;;38.43;34.23;;;15.60;99.90;;;;;;5036677;28;20502;-60
2021/09/01 05:01:27;;;;;;;38.90;32.17;;;15.60;99.90;;;;;;5023904;28;20452;-63
2021/09/01 05:03:53;;;;;;;37.10;33.17;;;15.60;99.90;;;;;;5022086;28;20896;-64
2021/09/01 05:06:20;;;;;;;38.87;33.30;;;15.70;99.90;;;;;;5023727;28;20455;-63
2021/09/01 05:08:47;;;;;;;40.60;35.33;;;15.80;99.90;;;;;;5022565;28;21052;-63
2021/09/01 05:11:13;;;;;;;38.10;33.30;;;15.80;99.90;;;;;;5022248;28;20865;-62
2021/09/01 05:13:40;;;;;;;47.33;37.20;;;15.80;99.90;;;;;;5021940;28;20499;-62
2021/09/01 05:16:08;;;;;;;39.87;35.70;;;15.80;99.90;;;;;;5022192;28;20452;-63
2021/09/01 05:18:35;;;;;;;38.20;33.93;;;15.80;99.90;;;;;;5021957;28;20897;-63
2021/09/01 05:21:03;;;;;;;42.43;32.63;;;15.90;99.90;;;;;;5021742;28;20966;-63
2021/09/01 05:23:33;;;;;;;31.57;28.63;;;15.90;99.90;;;;;;5022744;28;21096;-63
2021/09/01 05:26:01;;;;;;;33.17;29.53;;;15.90;99.90;;;;;;5021837;28;20958;-63
2021/09/01 05:28:29;;;;;;;30.77;27.20;;;15.90;99.90;;;;;;5021813;28;20894;-63
2021/09/01 05:30:58;;;;;;;31.60;25.47;;;15.90;99.90;;;;;;5021834;28;20467;-62
2021/09/01 05:33:29;;;;;;;26.97;24.30;;;16.00;99.90;;;;;;5022090;28;20468;-62
2021/09/01 05:35:56;;;;;;;26.13;23.53;;;16.00;99.90;;;;;;5022265;28;21092;-63
2021/09/01 05:38:23;;;;;;;24.40;22.10;;;16.00;99.90;;;;;;5025395;28;20462;-62
2021/09/01 05:40:51;;;;;;;26.10;23.60;;;16.00;99.90;;;;;;5041087;28;20495;-64
2021/09/01 05:43:20;;;;;;;24.70;22.40;;;16.10;99.90;;;;;;5040733;28;20471;-64
2021/09/01 05:45:48;;;;;;;21.43;19.30;;;16.10;99.90;;;;;;5041520;28;20448;-64
2021/09/01 05:48:15;;;;;;;23.13;20.90;;;16.10;99.90;;;;;;5041191;28;20460;-64
2021/09/01 05:50:44;;;;;;;24.03;21.40;;;16.10;99.90;;;;;;5041403;28;20455;-64
2021/09/01 05:53:11;;;;;;;19.73;17.70;;;16.20;99.90;;;;;;5030207;28;20488;-62
2021/09/01 05:55:42;;;;;;;17.17;15.77;;;16.20;99.90;;;;;;5021369;28;20471;-63
2021/09/01 05:58:12;;;;;;;18.07;16.47;;;16.20;99.90;;;;;;5021402;28;20473;-65
2021/09/01 06:00:41;;;;;;;20.53;17.50;;;16.30;99.90;;;;;;5021524;28;20485;-63
2021/09/01 06:03:14;;;;;;;19.70;17.97;;;16.30;99.90;;;;;;5020988;28;20476;-63
2021/09/01 06:05:46;;;;;;;20.20;18.40;;;16.30;99.90;;;;;;5021021;28;20455;-62
2021/09/01 06:08:14;;;;;;;19.10;17.10;;;16.30;99.90;;;;;;5021590;28;20898;-65
2021/09/01 06:10:41;;;;;;;17.60;16.20;;;16.30;99.90;;;;;;5041165;28;21013;-65
2021/09/01 06:13:09;;;;;;;16.63;15.53;;;16.20;99.90;;;;;;5039886;28;20818;-63
2021/09/01 06:15:38;;;;;;;16.60;15.10;;;16.30;99.90;;;;;;5041083;28;20915;-62
2021/09/01 06:18:05;;;;;;;16.63;15.37;;;16.20;99.90;;;;;;5040742;28;20793;-63
2021/09/01 06:20:33;;;;;;;16.83;15.60;;;16.20;99.90;;;;;;5040569;28;20515;-63
2021/09/01 06:23:02;;;;;;;19.20;17.30;;;16.20;99.90;;;;;;5040160;28;20460;-63
2021/09/01 06:25:28;;;;;;;24.97;22.43;;;16.30;99.90;;;;;;5039238;28;20521;-62
2021/09/01 06:27:55;;;;;;;23.20;21.10;;;16.30;99.90;;;;;;5040813;28;20451;-62
2021/09/01 06:30:23;;;;;;;23.83;21.77;;;16.30;99.90;;;;;;5040544;28;20440;-63
2021/09/01 06:32:51;;;;;;;24.30;22.20;;;16.30;99.90;;;;;;5040182;28;20455;-63
2021/09/01 06:35:18;;;;;;;22.60;20.57;;;16.30;99.90;;;;;;5040634;28;20452;-60
2021/09/01 06:37:45;;;;;;;22.60;20.60;;;16.40;99.90;;;;;;5040381;28;20448;-63
2021/09/01 06:40:15;;;;;;;18.00;16.40;;;16.40;99.90;;;;;;5039757;28;20757;-63
2021/09/01 06:42:42;;;;;;;18.00;16.57;;;16.40;99.90;;;;;;5038488;28;20202;-63
2021/09/01 06:45:10;;;;;;;18.33;16.67;;;16.50;99.90;;;;;;5040221;28;20451;-62
2021/09/01 06:47:41;;;;;;;18.07;16.23;;;16.50;99.90;;;;;;5040053;28;20451;-63
2021/09/01 06:50:10;;;;;;;16.80;15.40;;;16.50;99.90;;;;;;5040077;28;20441;-63
2021/09/01 06:52:37;;;;;;;18.67;16.77;;;16.50;99.90;;;;;;5039989;28;20447;-63
2021/09/01 06:55:04;;;;;;;17.67;16.30;;;16.60;99.90;;;;;;5040125;28;20444;-64
2021/09/01 06:57:33;;;;;;;18.27;16.70;;;16.60;99.90;;;;;;5038374;28;20447;-63
2021/09/01 07:00:00;;;;;;;17.80;15.30;;;16.60;99.90;;;;;;5020228;28;20489;-64
2021/09/01 07:02:27;;;;;;;18.80;15.10;;;16.60;99.90;;;;;;5019867;28;20445;-63
2021/09/01 07:04:53;;;;;;;16.83;15.40;;;16.70;99.90;;;;;;5019978;28;20483;-63
2021/09/01 07:07:20;;;;;;;15.73;14.23;;;16.80;99.90;;;;;;5033791;28;20456;-61
2021/09/01 07:09:47;;;;;;;16.80;15.27;;;16.90;99.90;;;;;;5022438;28;20449;-62
2021/09/01 07:12:14;;;;;;;18.90;17.23;;;16.90;99.90;;;;;;5019912;28;20457;-63
2021/09/01 07:14:42;;;;;;;17.17;15.47;;;16.90;99.90;;;;;;5019857;28;20473;-65
2021/09/01 07:17:09;;;;;;;18.53;15.60;;;16.90;99.90;;;;;;5020216;28;20453;-61
2021/09/01 07:19:36;;;;;;;19.80;15.57;;;17.00;99.90;;;;;;5020082;28;20965;-65
2021/09/01 07:22:03;;;;;;;17.13;15.10;;;17.10;99.90;;;;;;5023326;28;20455;-65
2021/09/01 07:24:30;;;;;;;16.23;15.00;;;17.20;99.90;;;;;;5039724;28;20463;-64
2021/09/01 07:26:56;;;;;;;16.63;15.03;;;17.30;99.90;;;;;;5039972;28;20956;-65
2021/09/01 07:29:23;;;;;;;16.37;15.17;;;17.40;99.90;;;;;;5039929;28;20460;-65
2021/09/01 07:31:51;;;;;;;16.73;15.30;;;17.40;99.90;;;;;;5039428;28;20445;-65
2021/09/01 07:34:18;;;;;;;16.10;14.70;;;17.40;99.90;;;;;;5039464;28;20807;-65
2021/09/01 07:36:45;;;;;;;16.87;15.40;;;17.40;99.90;;;;;;5039933;28;20444;-64
2021/09/01 07:39:12;;;;;;;17.50;16.07;;;17.50;99.90;;;;;;5038987;28;20475;-64
2021/09/01 07:41:39;;;;;;;16.97;15.33;;;17.60;99.90;;;;;;5039677;28;20448;-64
2021/09/01 07:44:05;;;;;;;17.50;15.90;;;17.60;99.90;;;;;;5039871;28;20803;-65
2021/09/01 07:46:32;;;;;;;16.90;15.57;;;17.60;99.90;;;;;;5036292;28;20449;-64
2021/09/01 07:49:01;;;;;;;17.50;15.90;;;17.50;99.90;;;;;;5020058;28;20441;-65
2021/09/01 07:51:28;;;;;;;17.63;16.10;;;17.50;99.90;;;;;;5020994;28;20453;-64
2021/09/01 07:53:55;;;;;;;16.90;15.60;;;17.60;99.90;;;;;;5019663;28;20465;-65
2021/09/01 07:56:22;;;;;;;18.80;16.90;;;17.60;99.90;;;;;;5019540;28;20449;-64
2021/09/01 07:58:48;;;;;;;17.13;15.77;;;17.60;99.90;;;;;;5019594;28;20926;-63
2021/09/01 08:01:15;;;;;;;20.03;17.93;;;17.50;99.90;;;;;;5019389;28;20481;-64
2021/09/01 08:03:42;;;;;;;19.90;18.23;;;17.50;99.90;;;;;;5019521;28;20473;-64
2021/09/01 08:06:10;;;;;;;19.50;17.67;;;17.50;99.90;;;;;;5033573;28;20456;-63
2021/09/01 08:08:37;;;;;;;20.30;18.20;;;17.50;99.90;;;;;;5040048;28;21280;-63
2021/09/01 08:11:04;;;;;;;18.20;16.70;;;17.60;99.90;;;;;;5039501;28;20904;-63
2021/09/01 08:13:31;;;;;;;19.13;17.23;;;17.50;99.90;;;;;;5032906;28;20480;-64
2021/09/01 08:15:57;;;;;;;21.30;19.00;;;17.50;99.90;;;;;;5019544;28;20456;-64
2021/09/01 08:18:25;;;;;;;18.50;17.00;;;17.50;99.90;;;;;;5019732;28;20453;-64
2021/09/01 08:20:52;;;;;;;17.87;16.30;;;17.50;99.90;;;;;;5038606;28;20571;-64
2021/09/01 08:23:20;;;;;;;22.00;19.90;;;17.40;99.90;;;;;;5039200;28;20472;-64
2021/09/01 08:25:47;;;;;;;17.37;15.80;;;17.30;99.90;;;;;;5039396;28;20456;-63
2021/09/01 08:28:14;;;;;;;18.43;16.90;;;17.30;99.90;;;;;;5039184;28;20810;-63
2021/09/01 08:30:41;;;;;;;20.53;18.73;;;17.30;99.90;;;;;;5038915;28;20448;-63
2021/09/01 08:33:08;;;;;;;29.63;21.90;;;17.40;99.90;;;;;;5039155;28;20583;-64
2021/09/01 08:35:35;;;;;;;22.80;20.47;;;17.30;99.90;;;;;;5038547;28;20448;-63
2021/09/01 08:38:01;;;;;;;20.07;18.37;;;17.40;99.90;;;;;;5043209;28;20897;-64
2021/09/01 08:40:29;;;;;;;19.43;17.73;;;17.50;99.90;;;;;;5042999;28;20479;-63
2021/09/01 08:42:57;;;;;;;20.47;17.97;;;17.70;99.90;;;;;;5042491;28;20468;-63
2021/09/01 08:45:24;;;;;;;18.40;16.90;;;17.70;99.90;;;;;;5043148;28;20451;-64
2021/09/01 08:47:52;;;;;;;19.57;17.70;;;17.70;99.90;;;;;;5042246;28;20448;-64
2021/09/01 08:50:19;;;;;;;21.20;18.70;;;17.60;99.90;;;;;;5042772;28;20451;-64
2021/09/01 08:52:46;;;;;;;21.90;20.00;;;17.60;99.90;;;;;;5029937;28;21027;-65
2021/09/01 08:55:14;;;;;;;20.73;19.10;;;17.60;99.90;;;;;;5022979;28;20452;-65
2021/09/01 08:57:43;;;;;;;21.30;19.40;;;17.70;99.90;;;;;;5022792;28;20452;-64
2021/09/01 09:00:10;;;;;;;20.87;19.07;;;17.60;99.90;;;;;;5022713;28;20836;-65
2021/09/01 09:02:37;;;;;;;20.73;18.90;;;17.70;99.90;;;;;;5022189;28;20449;-65
2021/09/01 09:05:06;;;;;;;22.77;20.47;;;17.70;99.90;;;;;;5022454;28;20452;-65
2021/09/01 09:07:43;;;;;;;21.93;20.10;;;17.70;99.90;;;;;;5022321;28;20503;-66
2021/09/01 09:10:25;;;;;;;21.43;19.23;;;17.80;99.90;;;;;;5015878;28;20529;-66
2021/09/01 09:12:58;;;;;;;19.73;18.03;;;17.80;99.90;;;;;;5017729;28;20457;-65
2021/09/01 09:15:24;;;;;;;20.60;18.80;;;17.70;99.90;;;;;;5022319;28;20457;-64
2021/09/01 09:17:51;;;;;;;19.93;18.17;;;17.80;99.90;;;;;;5022289;28;20452;-66
2021/09/01 09:20:25;;;;;;;21.17;19.47;;;17.90;99.90;;;;;;5022049;28;20485;-65
2021/09/01 09:22:53;;;;;;;22.07;20.17;;;18.00;99.90;;;;;;5021999;28;20445;-66
2021/09/01 09:25:23;;;;;;;20.23;18.93;;;18.00;99.90;;;;;;5021936;28;20815;-65
2021/09/01 09:27:51;;;;;;;22.97;19.97;;;18.00;99.90;;;;;;5026231;28;20449;-65
2021/09/01 09:30:31;;;;;;;20.90;19.30;;;18.10;99.90;;;;;;5021934;28;20480;-65
2021/09/01 09:33:02;;;;;;;22.00;20.10;;;18.10;99.90;;;;;;5021613;28;20469;-66
2021/09/01 09:35:47;;;;;;;21.93;19.63;;;18.20;99.90;;;;;;5021963;28;20480;-67
2021/09/01 09:38:15;;;;;;;18.53;17.07;;;18.30;99.90;;;;;;5021768;28;20452;-66
2021/09/01 09:40:41;;;;;;;20.27;18.60;;;18.00;99.90;;;;;;5021705;28;21005;-65
2021/09/01 09:43:17;;;;;;;19.17;17.87;;;17.80;99.90;;;;;;5022675;28;20476;-66
2021/09/01 09:45:46;;;;;;;18.40;17.07;;;17.90;99.90;;;;;;5021477;28;21072;-66
2021/09/01 09:48:13;;;;;;;19.40;17.83;;;17.90;99.90;;;;;;5021941;28;21001;-66
2021/09/01 09:50:47;;;;;;;18.03;16.73;;;17.90;99.90;;;;;;5021676;28;20448;-66
2021/09/01 09:53:28;;;;;;;18.53;16.90;;;18.00;99.90;;;;;;5021357;28;20555;-66
2021/09/01 09:56:04;;;;;;;19.37;17.70;;;17.90;99.90;;;;;;5021422;28;20976;-65
2021/09/01 09:58:34;;;;;;;18.30;16.90;;;17.90;99.90;;;;;;5038632;28;20871;-66
2021/09/01 10:01:06;;;;;;;21.43;19.57;;;17.90;99.90;;;;;;5040952;28;20484;-64
2021/09/01 10:03:34;;;;;;;22.77;20.60;;;17.90;99.90;;;;;;5060688;22;20500;-61
2021/09/01 10:06:03;;;;;;;24.43;21.97;;;17.70;99.90;;;;;;5005827;28;20935;-62
2021/09/01 10:08:30;;;;;;;24.67;22.57;;;17.60;99.90;;;;;;5021604;28;20789;-63
2021/09/01 10:11:00;;;;;;;25.27;22.73;;;17.70;99.90;;;;;;5021138;28;20480;-61
2021/09/01 10:13:29;;;;;;;23.90;21.70;;;17.60;99.90;;;;;;5020923;28;20562;-60
2021/09/01 10:16:01;;;;;;;23.33;21.10;;;17.50;99.90;;;;;;5021258;28;20821;-61
2021/09/01 10:18:31;;;;;;;24.13;22.13;;;17.60;99.90;;;;;;5021048;28;20449;-62
2021/09/01 10:20:59;;;;;;;24.90;22.73;;;17.40;99.90;;;;;;5020757;28;20492;-62
2021/09/01 10:23:43;;;;;;;27.33;24.27;;;17.30;99.90;;;;;;5021540;28;20476;-61
2021/09/01 10:26:25;;;;;;;25.57;23.27;;;17.30;99.90;;;;;;5020807;28;20576;-61
2021/09/01 10:28:52;;;;;;;24.80;22.37;;;17.40;99.90;;;;;;5020756;28;20449;-61
2021/09/01 10:31:20;;;;;;;28.77;25.87;;;17.50;99.90;;;;;;5020300;28;20453;-63
2021/09/01 10:33:51;;;;;;;25.73;23.57;;;17.50;99.90;;;;;;5021057;28;20966;-63
2021/09/01 10:36:46;;;;;;;26.63;23.97;;;17.60;99.90;;;;;;5020750;28;20499;-62
2021/09/01 10:39:35;;;;;;;24.80;22.50;;;17.60;99.90;;;;;;5020695;28;20913;-63
2021/09/01 10:42:37;;;;;;;26.40;24.10;;;17.70;99.90;;;;;;5020395;28;20526;-62
2021/09/01 10:45:06;;;;;;;25.00;22.57;;;17.70;99.90;;;;;;5019887;28;20491;-62
2021/09/01 10:48:01;;;;;;;24.67;22.40;;;17.80;99.90;;;;;;5020692;28;20456;-61
2021/09/01 10:50:33;;;;;;;24.57;22.17;;;17.90;99.90;;;;;;5020135;28;20943;-62
2021/09/01 10:53:03;;;;;;;25.20;22.90;;;17.90;99.90;;;;;;5019878;28;20463;-64
2021/09/01 10:55:30;;;;;;;25.40;23.03;;;18.00;99.90;;;;;;5020594;28;20449;-62
2021/09/01 10:58:16;;;;;;;27.10;24.63;;;18.00;99.90;;;;;;5019646;28;20808;-62
2021/09/01 11:00:43;;;;;;;24.83;22.40;;;18.20;99.90;;;;;;5020201;28;20842;-62
2021/09/01 11:03:10;;;;;;;23.03;21.17;;;18.30;99.90;;;;;;5019383;28;20888;-62
2021/09/01 11:05:39;;;;;;;26.73;24.33;;;18.40;99.90;;;;;;5020149;28;20449;-62
2021/09/01 11:08:06;;;;;;;26.10;23.70;;;18.50;99.90;;;;;;5020261;28;20946;-63
2021/09/01 11:10:32;;;;;;;25.13;23.03;;;18.50;99.90;;;;;;5020312;28;20480;-62
2021/09/01 11:13:01;;;;;;;24.10;21.80;;;18.50;99.90;;;;;;5019860;28;20941;-61
2021/09/01 11:15:29;;;;;;;24.93;22.50;;;18.60;99.90;;;;;;5020044;28;20814;-63
2021/09/01 11:18:07;;;;;;;22.70;21.00;;;18.50;99.90;;;;;;5019525;28;20838;-62
2021/09/01 11:20:34;;;;;;;23.47;21.07;;;18.40;99.90;;;;;;5019934;28;20456;-61
2021/09/01 11:23:03;;;;;;;24.20;22.20;;;18.20;99.90;;;;;;5019608;28;20823;-63
2021/09/01 11:25:30;;;;;;;24.70;22.50;;;18.00;99.90;;;;;;5019789;28;20826;-64
2021/09/01 11:27:57;;;;;;;27.20;24.80;;;17.90;99.90;;;;;;5019922;28;21164;-61
2021/09/01 11:30:31;;;;;;;28.53;25.57;;;17.80;99.90;;;;;;5019789;28;20542;-61
2021/09/01 11:33:00;;;;;;;24.33;22.10;;;17.90;99.90;;;;;;5019696;28;20757;-64
2021/09/01 11:35:29;;;;;;;25.37;23.27;;;17.90;99.90;;;;;;5019990;28;21289;-63
2021/09/01 11:37:56;;;;;;;23.80;21.97;;;17.90;99.90;;;;;;5020152;28;20464;-63
2021/09/01 11:40:32;;;;;;;24.70;22.50;;;18.00;99.90;;;;;;5019833;28;20906;-63
2021/09/01 11:42:59;;;;;;;25.90;23.83;;;18.10;99.90;;;;;;5019373;28;20444;-63
2021/09/01 11:45:26;;;;;;;24.37;22.63;;;18.00;99.90;;;;;;5019672;28;20457;-61
2021/09/01 11:47:57;;;;;;;26.23;23.53;;;18.00;99.90;;;;;;5019315;28;20452;-64
2021/09/01 11:50:24;;;;;;;26.13;23.93;;;18.10;99.90;;;;;;5019255;28;20449;-63
2021/09/01 11:52:55;;;;;;;24.43;22.37;;;18.20;99.90;;;;;;5019329;28;20457;-61
2021/09/01 11:55:23;;;;;;;25.67;23.27;;;18.20;99.90;;;;;;5019289;28;20980;-61
2021/09/01 11:57:51;;;;;;;23.73;22.00;;;18.20;99.90;;;;;;5019456;28;21186;-63
2021/09/01 12:00:18;;;;;;;25.30;22.97;;;18.30;99.90;;;;;;5019546;28;20464;-62
2021/09/01 12:02:49;;;;;;;24.80;22.63;;;18.40;99.90;;;;;;5019149;28;20594;-62
2021/09/01 12:05:29;;;;;;;22.77;21.27;;;18.30;99.90;;;;;;5019434;28;20491;-62
2021/09/01 12:07:56;;;;;;;24.17;22.23;;;18.20;99.90;;;;;;5019185;28;20476;-62
2021/09/01 12:10:27;;;;;;;24.10;22.00;;;18.20;99.90;;;;;;5020171;28;20444;-62
2021/09/01 12:13:01;;;;;;;24.80;22.80;;;18.20;99.90;;;;;;5023400;28;20977;-63
2021/09/01 12:15:30;;;;;;;24.47;22.40;;;18.30;99.90;;;;;;5023395;28;20923;-63
2021/09/01 12:18:01;;;;;;;24.73;22.70;;;18.20;99.90;;;;;;5023541;28;20874;-61
2021/09/01 12:20:28;;;;;;;25.07;22.97;;;18.40;99.90;;;;;;5023300;28;20957;-61
2021/09/01 12:22:55;;;;;;;24.87;22.97;;;18.50;99.90;;;;;;5022931;28;20900;-63
2021/09/01 12:25:24;;;;;;;24.97;22.53;;;18.50;99.90;;;;;;5022902;28;20479;-63
2021/09/01 12:28:03;;;;;;;25.60;23.57;;;18.50;99.90;;;;;;5023324;28;20452;-63
2021/09/01 12:30:32;;;;;;;23.37;21.77;;;18.60;99.90;;;;;;5023304;28;21036;-62
2021/09/01 12:33:00;;;;;;;24.03;21.93;;;18.70;99.90;;;;;;5022473;28;20445;-64
2021/09/01 12:35:29;;;;;;;24.13;21.97;;;18.90;99.90;;;;;;5022897;28;21008;-64